Time;durP1;ratioP1;P1;durP2;ratioP2;P2;SDS_P1;SDS_P2;PMS_P1;PMS_P2;Temp;Humidity;BMP_temperature;BMP_pressure;BME280_temperature;BME280_humidity;BME280_pressure;Samples;Min_cycle;Max_cycle;Signal;HPM_P1;HPM_P2
2023/04/04 00:01:25;;;;;;;3.47;2.38;;;;;;;;;;4964819;28;20062;-76
2023/04/04 00:03:51;;;;;;;1.80;1.08;;;;;;;;;;4980851;28;20034;-75
2023/04/04 00:06:18;;;;;;;6.05;2.20;;;;;;;;;;4980142;28;20046;-75
2023/04/04 00:08:43;;;;;;;3.42;2.50;;;;;;;;;;4970558;28;20074;-75
2023/04/04 00:11:09;;;;;;;4.78;1.67;;;;;;;;;;4964854;28;20133;-74
2023/04/04 00:13:34;;;;;;;3.42;1.90;;;;;;;;;;4963839;28;20145;-74
2023/04/04 00:16:00;;;;;;;3.08;2.38;;;;;;;;;;4964877;28;20038;-73
2023/04/04 00:18:25;;;;;;;4.25;2.10;;;;;;;;;;4963589;28;20948;-74
2023/04/04 00:20:51;;;;;;;4.80;2.00;;;;;;;;;;4965049;28;20039;-73
2023/04/04 00:23:16;;;;;;;4.22;2.30;;;;;;;;;;4963590;28;20070;-74
2023/04/04 00:25:42;;;;;;;3.08;1.88;;;;;;;;;;4965038;28;20086;-72
2023/04/04 00:28:08;;;;;;;4.55;2.40;;;;;;;;;;4968724;28;20042;-74
2023/04/04 00:30:35;;;;;;;3.75;2.08;;;;;;;;;;4980492;28;20065;-75
2023/04/04 00:33:01;;;;;;;2.75;1.67;;;;;;;;;;4978475;28;20689;-75
2023/04/04 00:35:26;;;;;;;8.10;2.70;;;;;;;;;;4963562;28;20068;-76
2023/04/04 00:37:52;;;;;;;3.83;2.17;;;;;;;;;;4979383;28;20591;-75
2023/04/04 00:40:17;;;;;;;3.97;2.45;;;;;;;;;;4979148;28;20043;-76
2023/04/04 00:42:43;;;;;;;5.50;2.63;;;;;;;;;;4966252;28;20783;-75
2023/04/04 00:45:09;;;;;;;6.22;2.25;;;;;;;;;;4965487;28;20050;-74
2023/04/04 00:47:36;;;;;;;4.88;2.17;;;;;;;;;;4963589;28;20134;-74
2023/04/04 00:50:02;;;;;;;9.18;2.53;;;;;;;;;;4981524;28;20054;-74
2023/04/04 00:52:28;;;;;;;7.78;2.00;;;;;;;;;;4970119;28;20047;-74
2023/04/04 00:54:56;;;;;;;3.08;2.65;;;;;;;;;;4995258;28;20042;-75
2023/04/04 00:57:23;;;;;;;4.13;2.42;;;;;;;;;;4984827;28;20073;-75
2023/04/04 00:59:49;;;;;;;2.97;2.33;;;;;;;;;;4995515;28;20131;-75
2023/04/04 01:02:15;;;;;;;8.02;2.95;;;;;;;;;;4977277;28;20046;-75
2023/04/04 01:04:41;;;;;;;3.28;2.10;;;;;;;;;;4978297;28;20057;-74
2023/04/04 01:07:07;;;;;;;3.70;2.72;;;;;;;;;;4980650;28;20042;-73
2023/04/04 01:09:33;;;;;;;3.08;2.65;;;;;;;;;;4987313;28;20100;-73
2023/04/04 01:11:59;;;;;;;5.68;2.55;;;;;;;;;;4994093;28;20801;-73
2023/04/04 01:14:26;;;;;;;2.20;1.70;;;;;;;;;;4967250;28;20038;-74
2023/04/04 01:16:52;;;;;;;6.35;2.45;;;;;;;;;;4988290;28;20049;-74
2023/04/04 01:19:37;;;;;;;10.68;3.25;;;;;;;;;;4988839;28;20080;-74
2023/04/04 01:22:11;;;;;;;5.50;2.70;;;;;;;;;;4984342;28;20128;-74
2023/04/04 01:24:40;;;;;;;5.15;2.58;;;;;;;;;;4965604;28;20412;-74
2023/04/04 01:27:06;;;;;;;8.57;3.33;;;;;;;;;;4998362;28;20082;-73
2023/04/04 01:29:36;;;;;;;4.03;2.85;;;;;;;;;;4998248;28;20129;-74
2023/04/04 01:32:17;;;;;;;4.80;3.08;;;;;;;;;;4988913;28;20144;-77
2023/04/04 01:35:00;;;;;;;4.70;3.20;;;;;;;;;;4982276;28;20129;-77
2023/04/04 01:37:41;;;;;;;5.88;3.47;;;;;;;;;;4994233;28;20042;-77
2023/04/04 01:40:20;;;;;;;6.13;3.55;;;;;;;;;;4977851;28;20172;-77
2023/04/04 01:42:48;;;;;;;5.72;2.63;;;;;;;;;;4990793;28;20108;-78
2023/04/04 01:45:14;;;;;;;4.53;2.85;;;;;;;;;;4974223;28;20141;-77
2023/04/04 01:47:42;;;;;;;5.90;3.13;;;;;;;;;;4984820;28;20078;-77
2023/04/04 01:50:12;;;;;;;8.13;2.97;;;;;;;;;;4981184;28;21069;-78
2023/04/04 01:52:38;;;;;;;3.97;2.70;;;;;;;;;;4995903;28;20133;-77
2023/04/04 01:55:04;;;;;;;2.08;1.90;;;;;;;;;;4992793;28;20601;-77
2023/04/04 01:57:32;;;;;;;3.88;2.88;;;;;;;;;;4982741;28;20039;-77
2023/04/04 01:59:57;;;;;;;4.70;2.33;;;;;;;;;;4995229;28;20038;-77
2023/04/04 02:02:23;;;;;;;3.53;2.95;;;;;;;;;;4987625;28;20117;-73
2023/04/04 02:04:48;;;;;;;3.60;2.50;;;;;;;;;;4997233;28;20046;-71
2023/04/04 02:07:14;;;;;;;9.00;2.10;;;;;;;;;;4982652;28;20045;-71
2023/04/04 02:09:40;;;;;;;4.00;2.55;;;;;;;;;;4986367;28;20038;-73
2023/04/04 02:12:07;;;;;;;2.75;2.50;;;;;;;;;;4997422;28;20050;-76
2023/04/04 02:14:33;;;;;;;3.95;2.97;;;;;;;;;;4997623;28;20141;-77
2023/04/04 02:16:59;;;;;;;1.90;1.80;;;;;;;;;;4978623;28;20049;-75
2023/04/04 02:19:24;;;;;;;8.38;2.88;;;;;;;;;;4994409;28;20120;-75
2023/04/04 02:21:50;;;;;;;4.03;2.70;;;;;;;;;;4982546;28;20050;-75
2023/04/04 02:24:16;;;;;;;3.88;2.40;;;;;;;;;;4997660;28;20528;-75
2023/04/04 02:26:41;;;;;;;3.67;2.42;;;;;;;;;;4997411;28;20039;-75
2023/04/04 02:29:07;;;;;;;3.70;2.30;;;;;;;;;;4989685;28;20053;-75
2023/04/04 02:31:33;;;;;;;2.95;2.42;;;;;;;;;;4990683;28;20042;-75
2023/04/04 02:33:59;;;;;;;5.57;3.03;;;;;;;;;;4995171;28;20194;-75
2023/04/04 02:36:25;;;;;;;6.50;2.60;;;;;;;;;;4982642;28;20135;-75
2023/04/04 02:38:52;;;;;;;5.30;2.67;;;;;;;;;;4997191;28;20034;-75
2023/04/04 02:41:20;;;;;;;11.15;3.00;;;;;;;;;;4995595;28;20042;-76
2023/04/04 02:43:45;;;;;;;5.47;3.03;;;;;;;;;;4996600;28;20116;-75
2023/04/04 02:46:11;;;;;;;4.80;2.70;;;;;;;;;;4994059;28;20403;-75
2023/04/04 02:48:36;;;;;;;4.70;2.60;;;;;;;;;;4994553;28;20036;-73
2023/04/04 02:51:02;;;;;;;4.65;2.83;;;;;;;;;;4994957;28;20042;-72
2023/04/04 02:53:28;;;;;;;2.75;2.03;;;;;;;;;;4991759;28;20047;-73
2023/04/04 02:56:02;;;;;;;5.82;2.78;;;;;;;;;;4993383;28;20046;-74
2023/04/04 02:58:30;;;;;;;3.47;3.17;;;;;;;;;;4997244;28;20057;-75
2023/04/04 03:00:55;;;;;;;4.18;2.80;;;;;;;;;;4993493;28;20630;-75
2023/04/04 03:03:26;;;;;;;6.00;2.72;;;;;;;;;;4977405;28;20923;-76
2023/04/04 03:05:52;;;;;;;3.80;2.47;;;;;;;;;;4988337;28;20053;-76
2023/04/04 03:08:17;;;;;;;4.60;3.08;;;;;;;;;;4996503;28;20042;-75
2023/04/04 03:10:45;;;;;;;4.43;2.70;;;;;;;;;;4996949;28;20077;-75
2023/04/04 03:13:11;;;;;;;4.50;2.85;;;;;;;;;;4976460;28;20045;-76
2023/04/04 03:15:36;;;;;;;5.22;2.72;;;;;;;;;;4989786;28;20041;-76
2023/04/04 03:18:02;;;;;;;5.95;2.90;;;;;;;;;;4980670;28;20034;-76
2023/04/04 03:20:30;;;;;;;5.82;2.80;;;;;;;;;;4993676;28;20133;-76
2023/04/04 03:22:56;;;;;;;5.00;2.78;;;;;;;;;;4980520;28;20479;-76
2023/04/04 03:25:22;;;;;;;4.70;2.97;;;;;;;;;;4994867;28;20042;-73
2023/04/04 03:27:47;;;;;;;4.45;2.25;;;;;;;;;;4996164;28;20054;-73
2023/04/04 03:30:19;;;;;;;4.50;2.83;;;;;;;;;;4994277;28;20581;-73
2023/04/04 03:32:45;;;;;;;3.33;1.65;;;;;;;;;;4975727;28;20051;-73
2023/04/04 03:35:10;;;;;;;3.17;2.17;;;;;;;;;;4981507;28;20042;-73
2023/04/04 03:37:36;;;;;;;4.20;2.72;;;;;;;;;;4994428;28;22930;-73
2023/04/04 03:40:01;;;;;;;3.17;2.55;;;;;;;;;;4996251;28;20046;-73
2023/04/04 03:42:32;;;;;;;3.95;2.50;;;;;;;;;;4994858;28;20041;-73
2023/04/04 03:44:58;;;;;;;4.55;2.78;;;;;;;;;;4980047;28;20069;-73
2023/04/04 03:47:29;;;;;;;2.43;2.23;;;;;;;;;;4976745;28;20440;-75
2023/04/04 03:49:56;;;;;;;4.75;2.67;;;;;;;;;;4991101;28;20392;-76
2023/04/04 03:52:22;;;;;;;4.47;2.72;;;;;;;;;;4995375;28;20050;-75
2023/04/04 03:54:47;;;;;;;3.65;2.75;;;;;;;;;;4989583;28;20403;-75
2023/04/04 03:57:13;;;;;;;6.45;2.13;;;;;;;;;;4969343;28;20042;-76
2023/04/04 03:59:41;;;;;;;3.20;2.40;;;;;;;;;;4994411;28;20064;-74
2023/04/04 04:02:06;;;;;;;6.22;2.38;;;;;;;;;;4992227;28;20408;-75
2023/04/04 04:04:31;;;;;;;7.05;2.83;;;;;;;;;;4979286;28;20049;-74
2023/04/04 04:06:57;;;;;;;3.30;2.63;;;;;;;;;;4981172;28;20049;-73
2023/04/04 04:09:22;;;;;;;2.88;2.22;;;;;;;;;;4976452;28;20042;-74
2023/04/04 04:11:49;;;;;;;10.18;2.72;;;;;;;;;;4987128;28;20045;-73
2023/04/04 04:14:15;;;;;;;5.47;2.65;;;;;;;;;;4995486;28;20034;-74
2023/04/04 04:16:41;;;;;;;3.20;2.80;;;;;;;;;;4993831;28;20053;-74
2023/04/04 04:19:08;;;;;;;5.65;2.90;;;;;;;;;;4995539;28;20053;-74
2023/04/04 04:21:38;;;;;;;6.88;2.85;;;;;;;;;;4985632;28;20061;-74
2023/04/04 04:24:04;;;;;;;8.80;3.47;;;;;;;;;;4975583;28;20054;-74
2023/04/04 04:26:29;;;;;;;4.85;2.97;;;;;;;;;;4990070;28;20038;-74
2023/04/04 04:28:55;;;;;;;7.00;3.38;;;;;;;;;;4996241;28;20046;-74
2023/04/04 04:31:27;;;;;;;;;;;;;;;;;;4987108;28;20112;-74
2023/04/04 04:33:54;;;;;;;2.80;1.92;;;;;;;;;;4985512;28;19925;-74
2023/04/04 04:36:24;;;;;;;4.63;2.70;;;;;;;;;;4995258;28;20043;-74
2023/04/04 04:39:01;;;;;;;4.97;3.08;;;;;;;;;;4988209;28;20133;-74
2023/04/04 04:41:31;;;;;;;4.18;2.90;;;;;;;;;;4978707;28;20097;-74
2023/04/04 04:43:58;;;;;;;4.60;3.38;;;;;;;;;;4992594;28;20061;-74
2023/04/04 04:46:25;;;;;;;7.72;3.22;;;;;;;;;;4972569;28;20046;-74
2023/04/04 04:48:51;;;;;;;3.22;2.67;;;;;;;;;;4995499;28;20038;-74
2023/04/04 04:51:22;;;;;;;3.25;2.95;;;;;;;;;;4994725;28;20113;-74
2023/04/04 04:53:51;;;;;;;4.22;2.78;;;;;;;;;;4986596;28;20073;-75
2023/04/04 04:56:17;;;;;;;7.43;3.25;;;;;;;;;;4995357;28;20108;-75
2023/04/04 04:58:47;;;;;;;6.32;3.05;;;;;;;;;;4997528;28;20046;-76
2023/04/04 05:01:19;;;;;;;5.38;3.17;;;;;;;;;;4994520;28;20045;-75
2023/04/04 05:03:45;;;;;;;4.97;2.83;;;;;;;;;;4994497;28;20046;-75
2023/04/04 05:06:14;;;;;;;5.10;3.25;;;;;;;;;;4994862;28;20038;-75
2023/04/04 05:08:40;;;;;;;3.97;2.85;;;;;;;;;;4996447;28;20038;-76
2023/04/04 05:11:20;;;;;;;8.18;3.22;;;;;;;;;;4997104;28;20058;-76
2023/04/04 05:13:46;;;;;;;3.95;3.05;;;;;;;;;;4998827;28;20046;-73
2023/04/04 05:16:12;;;;;;;6.47;3.20;;;;;;;;;;4993148;28;20050;-76
2023/04/04 05:18:39;;;;;;;5.07;3.42;;;;;;;;;;4997293;28;20062;-75
2023/04/04 05:21:08;;;;;;;4.88;3.33;;;;;;;;;;4979552;28;20104;-75
2023/04/04 05:23:34;;;;;;;10.23;3.15;;;;;;;;;;4994579;28;20038;-76
2023/04/04 05:25:59;;;;;;;5.90;3.38;;;;;;;;;;4997922;28;20522;-74
2023/04/04 05:28:29;;;;;;;6.65;2.90;;;;;;;;;;4995686;28;20046;-75
2023/04/04 05:30:59;;;;;;;5.45;3.15;;;;;;;;;;4986790;28;20049;-75
2023/04/04 05:33:28;;;;;;;3.22;2.72;;;;;;;;;;4995311;28;20042;-75
2023/04/04 05:36:11;;;;;;;4.28;3.35;;;;;;;;;;4992400;28;20041;-75
2023/04/04 05:38:43;;;;;;;6.10;3.13;;;;;;;;;;4989358;28;20411;-76
2023/04/04 05:41:09;;;;;;;7.97;2.85;;;;;;;;;;4997634;28;20053;-75
2023/04/04 05:43:35;;;;;;;5.40;3.15;;;;;;;;;;4990362;28;20331;-75
2023/04/04 05:46:08;;;;;;;2.97;2.33;;;;;;;;;;4994731;28;20092;-74
2023/04/04 05:48:43;;;;;;;5.20;2.97;;;;;;;;;;4993431;28;20061;-75
2023/04/04 05:51:09;;;;;;;3.55;2.47;;;;;;;;;;4983600;28;20042;-74
2023/04/04 05:53:44;;;;;;;3.75;2.17;;;;;;;;;;4994853;28;20046;-73
2023/04/04 05:56:10;;;;;;;3.35;2.70;;;;;;;;;;4985562;28;20081;-75
2023/04/04 05:58:36;;;;;;;4.68;2.85;;;;;;;;;;4973036;28;20404;-74
2023/04/04 06:01:09;;;;;;;2.85;2.60;;;;;;;;;;4990838;28;20041;-75
2023/04/04 06:03:36;;;;;;;2.42;1.98;;;;;;;;;;4996145;28;20038;-75
2023/04/04 06:06:04;;;;;;;4.22;2.72;;;;;;;;;;4996829;28;20128;-75
2023/04/04 06:08:30;;;;;;;3.88;2.83;;;;;;;;;;4998104;28;20046;-74
2023/04/04 06:10:56;;;;;;;4.60;2.53;;;;;;;;;;4986891;28;20053;-74
2023/04/04 06:13:22;;;;;;;4.82;2.90;;;;;;;;;;4982438;28;20530;-74
2023/04/04 06:15:53;;;;;;;7.30;3.30;;;;;;;;;;4993771;28;20046;-76
2023/04/04 06:18:19;;;;;;;3.15;2.42;;;;;;;;;;4994957;28;20051;-75
2023/04/04 06:20:45;;;;;;;7.97;3.42;;;;;;;;;;4995935;28;20101;-74
2023/04/04 06:23:10;;;;;;;8.93;3.03;;;;;;;;;;4985971;28;20184;-75
2023/04/04 06:25:40;;;;;;;4.38;3.38;;;;;;;;;;4994235;28;20415;-73
2023/04/04 06:28:06;;;;;;;8.40;3.25;;;;;;;;;;4997777;28;20057;-74
2023/04/04 06:30:36;;;;;;;3.75;3.03;;;;;;;;;;4979493;28;20046;-73
2023/04/04 06:33:03;;;;;;;5.25;2.83;;;;;;;;;;4993863;28;20046;-73
2023/04/04 06:35:29;;;;;;;6.50;2.95;;;;;;;;;;4996190;28;20045;-70
2023/04/04 06:37:59;;;;;;;4.18;3.00;;;;;;;;;;4986877;28;20168;-72
2023/04/04 06:40:25;;;;;;;4.75;2.22;;;;;;;;;;4996562;28;20042;-72
2023/04/04 06:42:56;;;;;;;6.80;3.13;;;;;;;;;;4996663;28;20101;-74
2023/04/04 06:45:23;;;;;;;3.80;2.75;;;;;;;;;;4990458;28;20038;-72
2023/04/04 06:47:50;;;;;;;9.07;3.40;;;;;;;;;;4997000;28;20053;-72
2023/04/04 06:50:16;;;;;;;5.35;3.05;;;;;;;;;;4978658;28;20049;-74
2023/04/04 06:52:43;;;;;;;2.70;2.47;;;;;;;;;;4980872;28;20053;-72
2023/04/04 06:55:09;;;;;;;4.32;3.03;;;;;;;;;;4975087;28;20122;-73
2023/04/04 06:57:35;;;;;;;7.80;3.47;;;;;;;;;;4989199;28;20563;-74
2023/04/04 07:00:02;;;;;;;4.60;2.88;;;;;;;;;;4993218;28;20034;-72
2023/04/04 07:02:27;;;;;;;4.30;3.03;;;;;;;;;;4978496;28;20085;-75
2023/04/04 07:04:52;;;;;;;3.70;2.65;;;;;;;;;;4981720;28;20193;-73
2023/04/04 07:07:18;;;;;;;4.90;3.38;;;;;;;;;;4978651;28;20100;-74
2023/04/04 07:09:43;;;;;;;5.80;2.92;;;;;;;;;;4981440;28;20076;-75
2023/04/04 07:12:09;;;;;;;3.85;3.05;;;;;;;;;;4981882;28;20057;-72
2023/04/04 07:14:34;;;;;;;4.03;2.83;;;;;;;;;;4981945;28;20058;-73
2023/04/04 07:17:00;;;;;;;3.55;2.22;;;;;;;;;;4974431;28;20038;-74
2023/04/04 07:19:27;;;;;;;3.83;3.30;;;;;;;;;;4993210;28;20049;-73
2023/04/04 07:21:54;;;;;;;4.55;3.72;;;;;;;;;;4981257;28;20410;-75
2023/04/04 07:24:19;;;;;;;7.13;2.88;;;;;;;;;;4978066;28;21033;-76
2023/04/04 07:26:45;;;;;;;4.93;2.70;;;;;;;;;;4981663;28;20046;-75
2023/04/04 07:29:10;;;;;;;6.18;2.53;;;;;;;;;;4968805;28;20070;-75
2023/04/04 07:31:36;;;;;;;4.10;2.88;;;;;;;;;;4968810;28;20051;-73
2023/04/04 07:34:02;;;;;;;3.92;2.88;;;;;;;;;;4981426;28;20046;-72
2023/04/04 07:36:28;;;;;;;3.13;2.38;;;;;;;;;;4969966;28;20070;-72
2023/04/04 07:38:53;;;;;;;4.30;2.95;;;;;;;;;;4977240;28;20077;-70
2023/04/04 07:41:20;;;;;;;3.75;2.55;;;;;;;;;;4976948;28;20522;-73
2023/04/04 07:43:46;;;;;;;4.43;3.15;;;;;;;;;;4980965;28;20054;-72
2023/04/04 07:46:11;;;;;;;3.42;2.40;;;;;;;;;;4977435;28;20056;-72
2023/04/04 07:48:37;;;;;;;2.72;2.50;;;;;;;;;;4981607;28;20038;-72
2023/04/04 07:51:05;;;;;;;6.28;3.33;;;;;;;;;;4973793;28;20385;-72
2023/04/04 07:53:31;;;;;;;3.55;3.00;;;;;;;;;;4976012;28;20125;-74
2023/04/04 07:55:57;;;;;;;3.17;2.88;;;;;;;;;;4973786;28;20464;-74
2023/04/04 07:58:22;;;;;;;4.70;3.47;;;;;;;;;;4981426;28;20052;-75
2023/04/04 08:00:48;;;;;;;4.35;2.88;;;;;;;;;;4974306;28;20056;-73
2023/04/04 08:03:13;;;;;;;7.95;3.35;;;;;;;;;;4980815;28;20065;-72
2023/04/04 08:05:40;;;;;;;4.78;3.28;;;;;;;;;;4973878;28;20058;-74
2023/04/04 08:08:06;;;;;;;4.30;3.50;;;;;;;;;;4996008;28;20046;-72
2023/04/04 08:10:31;;;;;;;3.58;3.10;;;;;;;;;;4971057;28;20053;-71
2023/04/04 08:12:57;;;;;;;6.20;3.78;;;;;;;;;;4966507;28;20042;-71
2023/04/04 08:15:22;;;;;;;3.78;2.67;;;;;;;;;;4966412;28;20783;-74
2023/04/04 08:17:48;;;;;;;4.15;3.08;;;;;;;;;;4979132;28;20789;-76
2023/04/04 08:20:14;;;;;;;3.28;2.97;;;;;;;;;;4969682;28;20049;-74
2023/04/04 08:22:41;;;;;;;3.47;2.15;;;;;;;;;;4975113;28;20046;-75
2023/04/04 08:25:07;;;;;;;4.13;3.20;;;;;;;;;;4966157;28;20053;-76
2023/04/04 08:27:33;;;;;;;3.13;2.25;;;;;;;;;;4965280;28;20113;-72
2023/04/04 08:29:58;;;;;;;3.97;3.10;;;;;;;;;;4969686;28;20050;-75
2023/04/04 08:32:24;;;;;;;5.53;3.80;;;;;;;;;;4968990;28;20046;-73
2023/04/04 08:34:49;;;;;;;6.15;3.40;;;;;;;;;;4972968;28;20952;-75
2023/04/04 08:37:15;;;;;;;6.88;3.67;;;;;;;;;;4981071;28;20082;-72
2023/04/04 08:39:41;;;;;;;4.03;2.38;;;;;;;;;;4979932;28;20081;-72
2023/04/04 08:42:08;;;;;;;3.03;2.42;;;;;;;;;;4980878;28;20103;-72
2023/04/04 08:44:34;;;;;;;3.63;2.85;;;;;;;;;;4975841;28;20505;-74
2023/04/04 08:47:04;;;;;;;3.00;2.70;;;;;;;;;;4977181;28;20038;-72
2023/04/04 08:49:32;;;;;;;4.80;3.47;;;;;;;;;;4970530;28;20042;-72
2023/04/04 08:52:00;;;;;;;6.00;3.55;;;;;;;;;;4962818;28;20125;-73
2023/04/04 08:54:29;;;;;;;6.20;3.25;;;;;;;;;;4962435;28;20082;-71
2023/04/04 08:56:55;;;;;;;3.30;3.00;;;;;;;;;;4963168;28;20047;-73
2023/04/04 08:59:20;;;;;;;4.25;2.60;;;;;;;;;;4962258;28;20057;-73
2023/04/04 09:01:46;;;;;;;4.20;3.35;;;;;;;;;;4966593;28;20047;-72
2023/04/04 09:04:12;;;;;;;3.28;2.65;;;;;;;;;;4962502;28;20058;-73
2023/04/04 09:06:38;;;;;;;2.83;1.92;;;;;;;;;;4967522;28;20046;-73
2023/04/04 09:09:03;;;;;;;6.22;2.92;;;;;;;;;;4976966;28;20042;-72
2023/04/04 09:11:34;;;;;;;6.80;3.33;;;;;;;;;;4968640;28;20046;-72
2023/04/04 09:14:03;;;;;;;2.67;2.20;;;;;;;;;;4980113;28;20050;-72
2023/04/04 09:16:30;;;;;;;3.72;2.47;;;;;;;;;;4993951;28;20056;-71
2023/04/04 09:18:55;;;;;;;6.10;2.65;;;;;;;;;;4981569;28;20046;-71
2023/04/04 09:21:25;;;;;;;3.88;2.90;;;;;;;;;;4963974;28;20043;-74
2023/04/04 09:24:05;;;;;;;3.63;3.00;;;;;;;;;;4974978;28;20083;-73
2023/04/04 09:26:52;;;;;;;5.85;3.08;;;;;;;;;;4974557;28;20061;-73
2023/04/04 09:29:20;;;;;;;4.57;3.08;;;;;;;;;;4971119;28;20042;-69
2023/04/04 09:31:48;;;;;;;3.38;2.97;;;;;;;;;;4972665;28;20061;-72
2023/04/04 09:34:17;;;;;;;3.42;2.90;;;;;;;;;;4964624;28;20051;-70
2023/04/04 09:36:45;;;;;;;2.50;2.30;;;;;;;;;;4972579;28;20996;-71
2023/04/04 09:39:15;;;;;;;6.88;3.28;;;;;;;;;;4965763;28;20046;-70
2023/04/04 09:41:45;;;;;;;3.58;2.90;;;;;;;;;;4973308;28;20051;-73
2023/04/04 09:44:12;;;;;;;4.95;2.90;;;;;;;;;;4978540;28;20495;-74
2023/04/04 09:46:39;;;;;;;3.53;2.85;;;;;;;;;;4973452;28;20052;-72
2023/04/04 09:49:10;;;;;;;5.30;3.35;;;;;;;;;;4988354;28;20049;-72
2023/04/04 09:51:37;;;;;;;4.35;2.45;;;;;;;;;;4975819;28;20105;-75
2023/04/04 09:54:09;;;;;;;4.25;2.38;;;;;;;;;;4973029;28;20042;-73
2023/04/04 09:56:43;;;;;;;5.38;3.45;;;;;;;;;;4963131;28;20094;-73
2023/04/04 09:59:17;;;;;;;3.78;2.70;;;;;;;;;;4990949;28;20097;-74
2023/04/04 10:01:52;;;;;;;2.63;2.35;;;;;;;;;;4971363;28;20049;-73
2023/04/04 10:04:19;;;;;;;6.65;2.83;;;;;;;;;;4972472;28;20050;-73
2023/04/04 10:06:49;;;;;;;5.20;3.42;;;;;;;;;;4965473;28;20047;-75
2023/04/04 10:09:15;;;;;;;6.82;3.22;;;;;;;;;;4988208;28;20042;-75
2023/04/04 10:11:41;;;;;;;3.35;2.83;;;;;;;;;;4966974;28;20039;-74
2023/04/04 10:14:09;;;;;;;4.85;2.50;;;;;;;;;;4970775;28;20458;-73
2023/04/04 10:16:36;;;;;;;4.20;2.90;;;;;;;;;;4969421;28;20058;-75
2023/04/04 10:19:06;;;;;;;3.67;2.67;;;;;;;;;;4970528;28;20154;-75
2023/04/04 10:21:33;;;;;;;2.97;2.63;;;;;;;;;;4957482;28;20074;-75
2023/04/04 10:24:08;;;;;;;5.50;2.90;;;;;;;;;;4993307;28;20050;-73
2023/04/04 10:26:35;;;;;;;7.85;2.67;;;;;;;;;;4991127;28;20180;-75
2023/04/04 10:29:04;;;;;;;4.03;2.90;;;;;;;;;;4982062;28;20057;-75
2023/04/04 10:31:39;;;;;;;3.70;2.65;;;;;;;;;;4959753;28;20138;-76
2023/04/04 10:34:20;;;;;;;2.55;2.35;;;;;;;;;;4987977;28;20105;-76
2023/04/04 10:37:04;;;;;;;3.08;2.45;;;;;;;;;;4975413;28;20125;-75
2023/04/04 10:40:09;;;;;;;2.72;2.40;;;;;;;;;;4975076;28;20050;-75
2023/04/04 10:42:41;;;;;;;2.45;2.25;;;;;;;;;;4971698;28;20137;-73
2023/04/04 10:45:11;;;;;;;4.20;3.35;;;;;;;;;;4979018;28;20047;-74
2023/04/04 10:47:38;;;;;;;4.68;3.72;;;;;;;;;;4971078;28;20105;-74
2023/04/04 10:50:09;;;;;;;7.30;3.60;;;;;;;;;;4982316;28;20057;-73
2023/04/04 10:52:37;;;;;;;4.80;3.67;;;;;;;;;;4986749;28;20045;-72
2023/04/04 10:55:06;;;;;;;3.67;3.25;;;;;;;;;;4984395;28;20042;-73
2023/04/04 10:57:43;;;;;;;2.90;2.53;;;;;;;;;;4974573;28;20042;-71
2023/04/04 11:00:16;;;;;;;6.93;3.15;;;;;;;;;;4971524;28;20506;-76
2023/04/04 11:02:51;;;;;;;3.20;2.80;;;;;;;;;;4999533;28;20125;-74
2023/04/04 11:05:40;;;;;;;4.43;3.22;;;;;;;;;;4982905;28;20134;-76
2023/04/04 11:08:12;;;;;;;5.05;3.13;;;;;;;;;;4955677;28;20042;-75
2023/04/04 11:10:44;;;;;;;3.53;3.10;;;;;;;;;;4979706;28;20517;-74
2023/04/04 11:13:34;;;;;;;6.22;3.08;;;;;;;;;;4966670;28;20039;-73
2023/04/04 11:16:06;;;;;;;2.22;2.03;;;;;;;;;;4970123;28;20050;-71
2023/04/04 11:18:41;;;;;;;3.47;3.10;;;;;;;;;;4963220;28;20042;-72
2023/04/04 11:21:17;;;;;;;5.20;2.72;;;;;;;;;;4972438;28;20079;-71
2023/04/04 11:23:46;;;;;;;4.78;3.55;;;;;;;;;;4973307;28;20050;-71
2023/04/04 11:26:15;;;;;;;2.97;2.67;;;;;;;;;;4971623;28;20096;-71
2023/04/04 11:28:47;;;;;;;3.75;3.15;;;;;;;;;;4973585;28;20050;-71
2023/04/04 11:31:19;;;;;;;3.47;3.03;;;;;;;;;;4980992;28;20515;-71
2023/04/04 11:34:08;;;;;;;3.72;3.20;;;;;;;;;;4970813;28;20537;-71
2023/04/04 11:36:44;;;;;;;3.83;3.20;;;;;;;;;;4971163;28;20042;-71
2023/04/04 11:39:29;;;;;;;4.80;3.20;;;;;;;;;;4987156;28;20041;-71
2023/04/04 11:42:16;;;;;;;6.55;3.33;;;;;;;;;;4980817;28;20096;-71
2023/04/04 11:45:01;;;;;;;3.65;2.85;;;;;;;;;;4989890;28;20053;-71
2023/04/04 11:47:35;;;;;;;4.50;3.47;;;;;;;;;;4969640;28;20042;-72
2023/04/04 11:50:12;;;;;;;3.80;2.70;;;;;;;;;;4970094;28;20074;-71
2023/04/04 11:52:47;;;;;;;5.28;3.30;;;;;;;;;;4969076;28;20089;-72
2023/04/04 11:55:18;;;;;;;6.05;3.08;;;;;;;;;;4981658;28;20045;-71
2023/04/04 11:57:51;;;;;;;3.88;2.90;;;;;;;;;;4989954;28;20070;-72
2023/04/04 12:00:36;;;;;;;4.05;3.20;;;;;;;;;;4998154;28;20041;-72
2023/04/04 12:03:31;;;;;;;4.45;2.58;;;;;;;;;;4977766;28;20153;-72
2023/04/04 12:06:01;;;;;;;3.10;2.80;;;;;;;;;;4984532;28;20776;-72
2023/04/04 12:08:32;;;;;;;6.25;3.05;;;;;;;;;;4979065;28;20045;-72
2023/04/04 12:11:08;;;;;;;3.63;3.03;;;;;;;;;;4984981;28;20124;-72
2023/04/04 12:13:43;;;;;;;5.35;3.28;;;;;;;;;;4989726;28;20153;-72
2023/04/04 12:16:13;;;;;;;4.22;3.03;;;;;;;;;;4965907;28;20058;-74
2023/04/04 12:18:44;;;;;;;3.13;2.85;;;;;;;;;;4983964;28;20082;-76
2023/04/04 12:21:14;;;;;;;;;;;;;;;;;;4965498;28;20049;-76
2023/04/04 12:23:43;;;;;;;3.95;3.28;;;;;;;;;;4962798;28;19952;-75
2023/04/04 12:26:13;;;;;;;6.20;3.30;;;;;;;;;;4989812;28;20568;-77
2023/04/04 12:28:44;;;;;;;9.35;2.85;;;;;;;;;;4978962;28;20056;-77
2023/04/04 12:31:15;;;;;;;3.25;2.22;;;;;;;;;;4983837;28;20046;-75
2023/04/04 12:33:44;;;;;;;5.07;2.63;;;;;;;;;;4967386;28;21026;-76
2023/04/04 12:36:14;;;;;;;3.65;2.80;;;;;;;;;;4977121;28;20073;-76
2023/04/04 12:39:03;;;;;;;7.28;2.95;;;;;;;;;;4977151;28;20049;-74
2023/04/04 12:41:56;;;;;;;3.88;3.08;;;;;;;;;;4956672;28;20097;-75
2023/04/04 12:44:38;;;;;;;3.13;2.83;;;;;;;;;;4998479;28;20042;-75
2023/04/04 12:47:09;;;;;;;4.00;3.20;;;;;;;;;;4992659;28;20046;-76
2023/04/04 12:49:41;;;;;;;4.90;3.08;;;;;;;;;;4984720;28;20053;-76
2023/04/04 12:52:17;;;;;;;3.47;2.67;;;;;;;;;;4998797;28;20458;-76
2023/04/04 12:54:45;;;;;;;4.53;2.88;;;;;;;;;;4999262;28;20062;-74
2023/04/04 12:57:20;;;;;;;4.78;3.00;;;;;;;;;;4976787;28;20080;-76
2023/04/04 12:59:47;;;;;;;5.38;3.20;;;;;;;;;;4999534;28;20065;-72
2023/04/04 13:02:21;;;;;;;3.58;2.83;;;;;;;;;;4994060;28;20207;-73
2023/04/04 13:04:52;;;;;;;5.25;2.97;;;;;;;;;;4982738;28;20068;-74
2023/04/04 13:07:29;;;;;;;4.53;3.20;;;;;;;;;;5005848;28;20132;-72
2023/04/04 13:09:58;;;;;;;6.63;3.92;;;;;;;;;;4985995;28;20115;-73
2023/04/04 13:12:24;;;;;;;5.18;3.35;;;;;;;;;;5001175;28;20594;-74
2023/04/04 13:15:05;;;;;;;3.88;2.90;;;;;;;;;;4991182;28;20093;-74
2023/04/04 13:17:47;;;;;;;5.18;3.22;;;;;;;;;;4967453;28;20035;-73
2023/04/04 13:20:15;;;;;;;5.30;2.92;;;;;;;;;;4966485;28;20086;-75
2023/04/04 13:22:41;;;;;;;3.35;2.85;;;;;;;;;;4969800;28;20058;-74
2023/04/04 13:25:07;;;;;;;3.67;3.13;;;;;;;;;;4974681;28;20042;-73
2023/04/04 13:27:33;;;;;;;6.07;2.90;;;;;;;;;;4973335;28;20049;-73
2023/04/04 13:29:59;;;;;;;3.42;3.13;;;;;;;;;;4973956;28;20177;-73
2023/04/04 13:32:24;;;;;;;6.20;3.40;;;;;;;;;;4969585;28;20046;-73
2023/04/04 13:34:50;;;;;;;3.10;2.80;;;;;;;;;;4969658;28;20436;-72
2023/04/04 13:37:16;;;;;;;3.97;3.00;;;;;;;;;;4968396;28;20050;-73
2023/04/04 13:39:41;;;;;;;3.50;3.03;;;;;;;;;;4983129;28;20058;-73
2023/04/04 13:42:06;;;;;;;4.80;3.28;;;;;;;;;;4966658;28;20050;-73
2023/04/04 13:44:32;;;;;;;5.43;3.50;;;;;;;;;;4967372;28;20053;-73
2023/04/04 13:46:58;;;;;;;5.70;3.22;;;;;;;;;;4968945;28;20046;-74
2023/04/04 13:49:23;;;;;;;4.05;3.45;;;;;;;;;;4966520;28;20158;-74
2023/04/04 13:51:49;;;;;;;3.47;2.67;;;;;;;;;;4968169;28;20047;-73
2023/04/04 13:54:15;;;;;;;6.45;3.05;;;;;;;;;;4971451;28;20034;-73
2023/04/04 13:56:40;;;;;;;7.30;3.33;;;;;;;;;;4975351;28;20064;-73
2023/04/04 13:59:05;;;;;;;3.50;3.20;;;;;;;;;;4974359;28;20419;-72
2023/04/04 14:01:31;;;;;;;4.10;3.10;;;;;;;;;;4970734;28;20074;-73
2023/04/04 14:03:57;;;;;;;2.63;2.42;;;;;;;;;;4990038;28;20191;-72
2023/04/04 14:06:22;;;;;;;5.50;3.00;;;;;;;;;;4967988;28;20089;-71
2023/04/04 14:08:48;;;;;;;3.22;2.78;;;;;;;;;;4969064;28;20045;-70
2023/04/04 14:11:13;;;;;;;5.25;3.20;;;;;;;;;;4968328;28;20416;-70
2023/04/04 14:13:39;;;;;;;3.60;3.15;;;;;;;;;;4974329;28;20109;-70
2023/04/04 14:16:06;;;;;;;3.90;3.30;;;;;;;;;;4972326;28;20038;-73
2023/04/04 14:18:33;;;;;;;4.32;3.10;;;;;;;;;;4976405;28;20077;-73
2023/04/04 14:20:59;;;;;;;3.40;3.10;;;;;;;;;;4975783;28;20038;-71
2023/04/04 14:23:24;;;;;;;3.28;2.92;;;;;;;;;;4979767;28;20046;-72
2023/04/04 14:25:50;;;;;;;3.42;3.10;;;;;;;;;;4979635;28;20415;-71
2023/04/04 14:28:15;;;;;;;3.50;2.92;;;;;;;;;;4981613;28;20240;-71
2023/04/04 14:30:41;;;;;;;4.40;2.80;;;;;;;;;;4974470;28;20098;-72
2023/04/04 14:33:06;;;;;;;4.35;3.28;;;;;;;;;;4982320;28;20104;-71
2023/04/04 14:35:32;;;;;;;3.78;3.00;;;;;;;;;;4973286;28;20034;-72
2023/04/04 14:37:57;;;;;;;3.80;3.08;;;;;;;;;;4979524;28;20054;-73
2023/04/04 14:40:23;;;;;;;3.67;2.70;;;;;;;;;;4974573;28;20259;-72
2023/04/04 14:42:48;;;;;;;3.47;3.10;;;;;;;;;;4982383;28;20046;-72
2023/04/04 14:45:14;;;;;;;5.20;3.00;;;;;;;;;;4975892;28;20105;-73
2023/04/04 14:47:40;;;;;;;5.43;3.33;;;;;;;;;;4974506;28;20069;-72
2023/04/04 14:50:06;;;;;;;4.72;2.53;;;;;;;;;;4965212;28;20034;-71
2023/04/04 14:52:31;;;;;;;5.13;3.08;;;;;;;;;;4982152;28;20046;-70